Rockwall's Hourly Summary for Thursday, March 16, 2017
Hour Temp
(f)
RH
(%)
Solar Rad.
(MJ/m2)
Rainfall
(in)
Wind
(mph)
3/16/2017 12:00 AM 52 64 0 0 3.28
3/16/2017 1:00 AM 51 65 0 0 3.42
3/16/2017 2:00 AM 49 69 0 0 2.66
3/16/2017 3:00 AM 49 72 0 0 4.09
3/16/2017 4:00 AM 50 74 0 0 5.56
3/16/2017 5:00 AM 51 78 0 0 6.66
3/16/2017 6:00 AM 53 84 0 0 6.96
3/16/2017 7:00 AM 54 87 0 0 5.65
3/16/2017 8:00 AM 54 88 0.01 0 4.99
3/16/2017 9:00 AM 54 89 0.08 0 4.69
3/16/2017 10:00 AM 55 86 0.22 0 4.93
3/16/2017 11:00 AM 56 83 0.34 0 5.36
3/16/2017 12:00 PM 58 80 0.54 0 6.18
3/16/2017 1:00 PM 60 76 0.82 0 6.22
3/16/2017 2:00 PM 63 72 1.03 0 6.24
3/16/2017 3:00 PM 66 70 0.95 0 6.93
3/16/2017 4:00 PM 66 70 0.52 0 6.01
3/16/2017 5:00 PM 67 70 0.42 0 6.24
3/16/2017 6:00 PM 69 66 0.71 0 8.05
3/16/2017 7:00 PM 70 65 0.28 0 7.17
3/16/2017 8:00 PM 69 66 0.04 0 5.79
3/16/2017 9:00 PM 68 69 0 0 6.3
3/16/2017 10:00 PM 66 74 0 0 6.89
3/16/2017 11:00 PM 65 78 0 0 7.33
Data Summary 58 74 5.96 0.00 5.73